Time;durP1;ratioP1;P1;durP2;ratioP2;P2;SDS_P1;SDS_P2;PMS_P1;PMS_P2;Temp;Humidity;BMP_temperature;BMP_pressure;BME280_temperature;BME280_humidity;BME280_pressure;Samples;Min_cycle;Max_cycle;Signal;HPM_P1;HPM_P2
2023/12/01 00:02:05;;;;;;;44.23;20.17;;;3.30;99.90;;;;;;5073891;28;20166;-70
2023/12/01 00:04:30;;;;;;;40.70;20.77;;;3.30;99.90;;;;;;5073871;28;20178;-70
2023/12/01 00:06:56;;;;;;;39.53;20.40;;;3.30;99.90;;;;;;5073656;28;20178;-70
2023/12/01 00:09:21;;;;;;;41.77;19.97;;;3.30;99.90;;;;;;5072416;28;20619;-69
2023/12/01 00:11:47;;;;;;;36.13;18.10;;;3.30;99.90;;;;;;5073652;28;20181;-70
2023/12/01 00:14:12;;;;;;;39.27;18.30;;;3.30;99.90;;;;;;5073600;28;20257;-70
2023/12/01 00:16:38;;;;;;;34.70;18.37;;;3.30;99.90;;;;;;5073517;28;20222;-70
2023/12/01 00:19:04;;;;;;;43.83;19.03;;;3.30;99.90;;;;;;5073454;28;20163;-70
2023/12/01 00:21:29;;;;;;;35.87;18.10;;;3.30;99.90;;;;;;5073431;28;20186;-70
2023/12/01 00:23:54;;;;;;;45.07;21.23;;;3.30;99.90;;;;;;5073539;28;20261;-70
2023/12/01 00:26:20;;;;;;;36.03;19.27;;;3.30;99.90;;;;;;5073347;28;20254;-69
2023/12/01 00:28:46;;;;;;;39.50;21.20;;;3.30;99.90;;;;;;5073326;28;20320;-68
2023/12/01 00:31:11;;;;;;;46.97;19.37;;;3.30;99.90;;;;;;5073130;28;20235;-69
2023/12/01 00:33:37;;;;;;;39.60;18.93;;;3.30;99.90;;;;;;5073261;28;20181;-68
2023/12/01 00:36:03;;;;;;;40.40;17.97;;;3.20;99.90;;;;;;5073160;28;20292;-69
2023/12/01 00:38:28;;;;;;;33.90;16.80;;;3.30;99.90;;;;;;5073037;28;20174;-68
2023/12/01 00:40:54;;;;;;;38.27;18.07;;;3.30;99.90;;;;;;5071614;28;20436;-69
2023/12/01 00:43:19;;;;;;;50.50;21.80;;;3.30;99.90;;;;;;5072904;28;20197;-70
2023/12/01 00:45:45;;;;;;;40.23;18.67;;;3.30;99.90;;;;;;5073109;28;20544;-70
2023/12/01 00:48:10;;;;;;;39.20;20.53;;;3.20;99.90;;;;;;5072878;28;20249;-69
2023/12/01 00:50:36;;;;;;;35.20;20.07;;;3.30;99.90;;;;;;5072855;28;20273;-69
2023/12/01 00:53:01;;;;;;;43.77;19.93;;;3.30;99.90;;;;;;5072676;28;20166;-70
2023/12/01 00:55:27;;;;;;;46.27;19.70;;;3.20;99.90;;;;;;5071808;28;20293;-70
2023/12/01 00:57:53;;;;;;;41.87;19.43;;;3.20;99.90;;;;;;5072638;28;20198;-69
2023/12/01 01:00:22;;;;;;;34.27;16.40;;;3.10;99.90;;;;;;5072687;28;20185;-69
2023/12/01 01:02:50;;;;;;;36.07;17.27;;;3.10;99.90;;;;;;5072519;28;20412;-69
2023/12/01 01:05:16;;;;;;;34.80;17.13;;;3.10;99.90;;;;;;5072637;28;20409;-70
2023/12/01 01:07:41;;;;;;;38.10;17.67;;;3.10;99.90;;;;;;5071221;28;20475;-69
2023/12/01 01:10:07;;;;;;;41.67;17.37;;;3.10;99.90;;;;;;5072449;28;20428;-69
2023/12/01 01:12:33;;;;;;;29.57;14.87;;;3.10;99.90;;;;;;5072354;28;20170;-70
2023/12/01 01:15:02;;;;;;;33.93;16.50;;;3.10;99.90;;;;;;5072405;28;20231;-68
2023/12/01 01:17:28;;;;;;;34.80;16.53;;;3.00;99.90;;;;;;5072366;28;20200;-69
2023/12/01 01:19:54;;;;;;;36.53;15.30;;;3.00;99.90;;;;;;5072334;28;20482;-69
2023/12/01 01:22:19;;;;;;;35.43;16.63;;;3.00;99.90;;;;;;5072320;28;20176;-70
2023/12/01 01:24:45;;;;;;;39.23;17.07;;;3.00;99.90;;;;;;5072259;28;20166;-68
2023/12/01 01:27:11;;;;;;;38.43;17.47;;;3.00;99.90;;;;;;5071741;28;20181;-69
2023/12/01 01:29:37;;;;;;;32.60;16.17;;;3.00;99.90;;;;;;5072133;28;20515;-69
2023/12/01 01:32:03;;;;;;;31.40;16.37;;;3.00;99.90;;;;;;5072154;28;20443;-69
2023/12/01 01:34:28;;;;;;;30.63;16.30;;;3.10;99.90;;;;;;5072077;28;20170;-68
2023/12/01 01:36:55;;;;;;;35.57;18.43;;;3.10;99.90;;;;;;5071973;28;20194;-68
2023/12/01 01:39:20;;;;;;;38.83;18.30;;;3.10;99.90;;;;;;5072024;28;20207;-69
2023/12/01 01:41:46;;;;;;;37.17;16.23;;;3.00;99.90;;;;;;5071940;28;20814;-69
2023/12/01 01:44:11;;;;;;;42.30;19.93;;;3.00;99.90;;;;;;5072063;28;20192;-69
2023/12/01 01:46:37;;;;;;;50.00;17.23;;;3.00;99.90;;;;;;5072010;28;20170;-68
2023/12/01 01:49:05;;;;;;;39.20;18.90;;;3.00;99.90;;;;;;5072049;28;20174;-69
2023/12/01 01:51:33;;;;;;;43.33;18.23;;;3.00;99.90;;;;;;5071820;28;20225;-69
2023/12/01 01:53:59;;;;;;;43.90;19.53;;;3.00;99.90;;;;;;5071823;28;20417;-69
2023/12/01 01:56:26;;;;;;;40.77;17.37;;;3.00;99.90;;;;;;5071753;28;20777;-69
2023/12/01 01:58:51;;;;;;;47.07;19.20;;;2.90;99.90;;;;;;5070678;28;20511;-68
2023/12/01 02:01:17;;;;;;;43.17;18.40;;;2.90;99.90;;;;;;5071609;28;20465;-69
2023/12/01 02:03:43;;;;;;;43.23;18.70;;;2.90;99.90;;;;;;5071803;28;20162;-70
2023/12/01 02:06:08;;;;;;;40.90;18.97;;;2.90;99.90;;;;;;5071846;28;20249;-70
2023/12/01 02:08:34;;;;;;;38.03;17.23;;;2.80;99.90;;;;;;5071492;28;20227;-69
2023/12/01 02:11:00;;;;;;;39.67;16.33;;;2.80;99.90;;;;;;5070552;28;20273;-69
2023/12/01 02:13:26;;;;;;;41.40;16.70;;;2.80;99.90;;;;;;5071750;28;20289;-69
2023/12/01 02:15:52;;;;;;;41.17;16.90;;;2.90;99.90;;;;;;5071705;28;20448;-69
2023/12/01 02:18:26;;;;;;;44.33;16.80;;;2.80;99.90;;;;;;5071543;28;20419;-70
2023/12/01 02:20:55;;;;;;;43.90;17.30;;;2.80;99.90;;;;;;5070355;28;20838;-71
2023/12/01 02:23:21;;;;;;;31.00;16.80;;;2.80;99.90;;;;;;5071569;28;20405;-69
2023/12/01 02:25:47;;;;;;;38.97;15.70;;;2.80;99.90;;;;;;5071667;28;20926;-69
2023/12/01 02:28:13;;;;;;;40.37;16.53;;;2.80;99.90;;;;;;5071572;28;20454;-69
2023/12/01 02:30:41;;;;;;;37.70;16.50;;;2.80;99.90;;;;;;5071344;28;20420;-69
2023/12/01 02:33:07;;;;;;;33.00;15.60;;;2.80;99.90;;;;;;5071475;28;20449;-69
2023/12/01 02:35:32;;;;;;;40.93;19.50;;;2.80;99.90;;;;;;5071315;28;20958;-69
2023/12/01 02:37:59;;;;;;;36.63;17.30;;;2.80;99.90;;;;;;5071290;28;20163;-69
2023/12/01 02:40:26;;;;;;;33.10;16.60;;;2.80;99.90;;;;;;5071259;28;20197;-69
2023/12/01 02:42:53;;;;;;;34.77;17.07;;;2.90;99.90;;;;;;5071226;28;20934;-69
2023/12/01 02:45:19;;;;;;;34.90;18.37;;;2.90;99.90;;;;;;5070052;28;20428;-69
2023/12/01 02:47:47;;;;;;;31.73;18.13;;;2.90;99.90;;;;;;5071216;28;20419;-70
2023/12/01 02:50:13;;;;;;;36.33;18.30;;;2.90;99.90;;;;;;5071260;28;20500;-70
2023/12/01 02:52:41;;;;;;;37.80;17.77;;;2.90;99.90;;;;;;5071273;28;20432;-69
2023/12/01 02:55:07;;;;;;;46.77;21.20;;;3.00;99.90;;;;;;5071095;28;20456;-70
2023/12/01 02:57:39;;;;;;;39.50;17.80;;;3.00;99.90;;;;;;5071179;28;20398;-69
2023/12/01 03:00:14;;;;;;;35.70;15.97;;;3.00;99.90;;;;;;5071289;28;20421;-69
2023/12/01 03:02:41;;;;;;;42.80;18.47;;;3.00;99.90;;;;;;5071303;28;20380;-69
2023/12/01 03:05:08;;;;;;;32.77;17.87;;;3.00;99.90;;;;;;5071347;28;20541;-70
2023/12/01 03:07:33;;;;;;;34.80;18.50;;;3.00;99.90;;;;;;5070993;28;20420;-69
2023/12/01 03:09:59;;;;;;;36.13;15.20;;;3.00;99.90;;;;;;5071003;28;20424;-70
2023/12/01 03:12:24;;;;;;;39.83;15.20;;;3.00;99.90;;;;;;5070951;28;20167;-69
2023/12/01 03:14:50;;;;;;;36.53;17.40;;;3.00;99.90;;;;;;5070958;28;20171;-70
2023/12/01 03:17:15;;;;;;;39.77;18.37;;;3.00;99.90;;;;;;5069581;28;20177;-70
2023/12/01 03:19:45;;;;;;;30.53;16.70;;;3.00;99.90;;;;;;5071574;28;20186;-70
2023/12/01 03:22:11;;;;;;;41.90;16.77;;;3.00;99.90;;;;;;5074493;28;20546;-68
2023/12/01 03:24:37;;;;;;;38.37;17.47;;;3.00;99.90;;;;;;5074344;28;20880;-69
2023/12/01 03:27:03;;;;;;;30.23;16.03;;;3.00;99.90;;;;;;5074386;28;20408;-69
2023/12/01 03:29:28;;;;;;;34.20;16.73;;;3.00;99.90;;;;;;5074391;28;20170;-70
2023/12/01 03:31:54;;;;;;;29.60;14.27;;;3.00;99.90;;;;;;5074286;28;20408;-70
2023/12/01 03:34:19;;;;;;;30.30;16.47;;;3.00;99.90;;;;;;5074280;28;20173;-70
2023/12/01 03:36:45;;;;;;;33.03;17.27;;;3.00;99.90;;;;;;5074107;28;20604;-70
2023/12/01 03:39:11;;;;;;;36.97;17.17;;;3.00;99.90;;;;;;5073213;28;20540;-69
2023/12/01 03:41:37;;;;;;;36.30;18.70;;;3.00;99.90;;;;;;5074210;28;20183;-69
2023/12/01 03:44:02;;;;;;;37.63;19.80;;;2.90;99.90;;;;;;5074139;28;20943;-69
2023/12/01 03:46:28;;;;;;;33.73;17.87;;;3.00;99.90;;;;;;5074022;28;20691;-69
2023/12/01 03:48:53;;;;;;;38.30;18.50;;;3.00;99.90;;;;;;5072837;28;20170;-69
2023/12/01 03:51:19;;;;;;;35.67;16.40;;;3.00;99.90;;;;;;5073933;28;20193;-70
2023/12/01 03:53:44;;;;;;;27.63;14.40;;;2.90;99.90;;;;;;5073792;28;20213;-69
2023/12/01 03:56:10;;;;;;;34.23;14.70;;;2.90;99.90;;;;;;5073935;28;20213;-69
2023/12/01 03:58:35;;;;;;;26.10;14.17;;;2.90;99.90;;;;;;5072616;28;20586;-69
2023/12/01 04:01:05;;;;;;;28.80;15.63;;;2.90;99.90;;;;;;5073588;28;20210;-69
2023/12/01 04:03:31;;;;;;;26.33;15.77;;;2.90;99.90;;;;;;5073748;28;20167;-70
2023/12/01 04:06:01;;;;;;;29.63;15.80;;;3.00;99.90;;;;;;5072416;28;20470;-69
2023/12/01 04:08:27;;;;;;;27.57;14.53;;;3.00;99.90;;;;;;5073635;28;20519;-70
2023/12/01 04:10:52;;;;;;;27.80;15.60;;;3.00;99.90;;;;;;5073656;28;20538;-69
2023/12/01 04:13:19;;;;;;;37.77;15.03;;;3.00;99.90;;;;;;5073680;28;20970;-69
2023/12/01 04:15:45;;;;;;;24.13;14.47;;;3.00;99.90;;;;;;5072940;28;20197;-69
2023/12/01 04:18:12;;;;;;;31.10;15.90;;;3.10;99.90;;;;;;5073523;28;20401;-69
2023/12/01 04:20:40;;;;;;;26.03;14.93;;;3.10;99.90;;;;;;5072225;28;20243;-69
2023/12/01 04:23:11;;;;;;;23.80;14.27;;;3.10;99.90;;;;;;5073435;28;20424;-69
2023/12/01 04:25:38;;;;;;;27.00;14.20;;;3.10;99.90;;;;;;5073516;28;20400;-69
2023/12/01 04:28:05;;;;;;;36.33;16.57;;;3.00;99.90;;;;;;5073373;28;20400;-69
2023/12/01 04:30:31;;;;;;;29.37;14.77;;;3.00;99.90;;;;;;5073170;28;20420;-69
2023/12/01 04:32:57;;;;;;;39.30;16.83;;;3.00;99.90;;;;;;5073233;28;20414;-69
2023/12/01 04:35:31;;;;;;;28.70;16.33;;;3.00;99.90;;;;;;5073196;28;20563;-69
2023/12/01 04:37:59;;;;;;;29.33;13.53;;;2.90;99.90;;;;;;5072899;28;20416;-70
2023/12/01 04:40:27;;;;;;;28.37;15.17;;;2.90;99.90;;;;;;5073123;28;20417;-69
2023/12/01 04:42:54;;;;;;;26.50;15.20;;;2.90;99.90;;;;;;5073059;28;20484;-69
2023/12/01 04:45:24;;;;;;;28.97;14.93;;;2.90;99.90;;;;;;5073076;28;20450;-69
2023/12/01 04:47:51;;;;;;;23.13;13.30;;;2.90;99.90;;;;;;5072876;28;20426;-69
2023/12/01 04:50:19;;;;;;;24.03;13.23;;;2.80;99.90;;;;;;5071579;28;20424;-69
2023/12/01 04:52:45;;;;;;;24.43;12.80;;;2.80;99.90;;;;;;5072785;28;20404;-69
2023/12/01 04:55:14;;;;;;;22.70;13.30;;;2.80;99.90;;;;;;5072742;28;20542;-69
2023/12/01 04:57:41;;;;;;;28.77;15.00;;;2.60;99.90;;;;;;5072670;28;20401;-70
2023/12/01 05:00:25;;;;;;;28.47;13.53;;;2.70;99.90;;;;;;5072569;28;20478;-69
2023/12/01 05:02:53;;;;;;;24.13;12.93;;;2.70;99.90;;;;;;5072562;28;20381;-69
2023/12/01 05:05:23;;;;;;;20.53;12.87;;;2.70;99.90;;;;;;5072676;28;20462;-69
2023/12/01 05:07:51;;;;;;;23.83;13.87;;;2.60;99.90;;;;;;5072471;28;20882;-68
2023/12/01 05:10:22;;;;;;;24.27;12.33;;;2.60;99.90;;;;;;5072542;28;20429;-69
2023/12/01 05:12:50;;;;;;;27.97;14.40;;;2.60;99.90;;;;;;5072440;28;20432;-70
2023/12/01 05:15:20;;;;;;;22.73;13.60;;;2.60;99.90;;;;;;5071164;28;20814;-71
2023/12/01 05:17:51;;;;;;;24.33;15.70;;;2.60;99.90;;;;;;5072242;28;20500;-69
2023/12/01 05:20:18;;;;;;;23.77;12.33;;;2.60;99.90;;;;;;5072373;28;20424;-70
2023/12/01 05:22:45;;;;;;;29.73;13.90;;;2.70;99.90;;;;;;5070821;28;20408;-70
2023/12/01 05:25:14;;;;;;;27.93;13.87;;;2.70;99.90;;;;;;5072334;28;20396;-70
2023/12/01 05:27:51;;;;;;;26.87;15.47;;;2.60;99.90;;;;;;5072159;28;20412;-70
2023/12/01 05:30:19;;;;;;;26.40;13.73;;;2.60;99.90;;;;;;5070959;28;20436;-71
2023/12/01 05:32:48;;;;;;;29.83;13.50;;;2.60;99.90;;;;;;5072247;28;20462;-70
2023/12/01 05:35:15;;;;;;;22.87;12.90;;;2.60;99.90;;;;;;5072195;28;20493;-70
2023/12/01 05:37:42;;;;;;;33.37;13.77;;;2.60;99.90;;;;;;5071726;28;20400;-70
2023/12/01 05:40:09;;;;;;;22.73;12.87;;;2.60;99.90;;;;;;5070775;28;20429;-69
2023/12/01 05:42:36;;;;;;;29.90;14.13;;;2.60;99.90;;;;;;5071551;28;20397;-69
2023/12/01 05:45:04;;;;;;;24.67;13.17;;;2.60;99.90;;;;;;5072121;28;20409;-70
2023/12/01 05:47:30;;;;;;;26.27;14.40;;;2.60;99.90;;;;;;5072030;28;20794;-70
2023/12/01 05:49:55;;;;;;;30.87;15.90;;;2.60;99.90;;;;;;5072020;28;20431;-69
2023/12/01 05:52:21;;;;;;;24.30;13.17;;;2.60;99.90;;;;;;5071988;28;20641;-70
2023/12/01 05:54:48;;;;;;;26.13;13.87;;;2.60;99.90;;;;;;5071899;28;20185;-70
2023/12/01 05:57:14;;;;;;;25.57;12.77;;;2.50;99.90;;;;;;5071843;28;20159;-70
2023/12/01 05:59:42;;;;;;;24.40;13.40;;;2.50;99.90;;;;;;5071831;28;20474;-70
2023/12/01 06:02:11;;;;;;;25.43;14.07;;;2.50;99.90;;;;;;5071849;28;20163;-69
2023/12/01 06:04:37;;;;;;;25.57;13.37;;;2.50;99.90;;;;;;5071904;28;20391;-70
2023/12/01 06:07:07;;;;;;;28.20;14.50;;;2.50;99.90;;;;;;5071768;28;20431;-70
2023/12/01 06:09:34;;;;;;;29.63;14.97;;;2.60;99.90;;;;;;5071931;28;20412;-70
2023/12/01 06:11:59;;;;;;;25.07;12.87;;;2.50;99.90;;;;;;5071763;28;20756;-70
2023/12/01 06:14:25;;;;;;;27.63;15.40;;;2.50;99.90;;;;;;5071792;28;20396;-70
2023/12/01 06:16:51;;;;;;;27.23;13.17;;;2.50;99.90;;;;;;5071574;28;20190;-70
2023/12/01 06:19:17;;;;;;;26.63;13.10;;;2.50;99.90;;;;;;5071537;28;20162;-70
2023/12/01 06:21:43;;;;;;;27.00;13.60;;;2.60;99.90;;;;;;5069842;28;20423;-70
2023/12/01 06:24:08;;;;;;;22.67;13.60;;;2.60;99.90;;;;;;5071559;28;20942;-70
2023/12/01 06:26:34;;;;;;;22.97;12.87;;;2.50;99.90;;;;;;5071457;28;20413;-69
2023/12/01 06:29:00;;;;;;;32.50;14.40;;;2.50;99.90;;;;;;5071538;28;20167;-69
2023/12/01 06:31:25;;;;;;;25.27;12.70;;;2.50;99.90;;;;;;5071415;28;20604;-70
2023/12/01 06:33:51;;;;;;;25.30;13.47;;;2.60;99.90;;;;;;5071390;28;20177;-70
2023/12/01 06:36:16;;;;;;;28.10;13.57;;;2.60;99.90;;;;;;5071081;28;20194;-70
2023/12/01 06:38:42;;;;;;;24.30;12.97;;;2.60;99.90;;;;;;5071350;28;20175;-70
2023/12/01 06:41:07;;;;;;;24.07;11.67;;;2.60;99.90;;;;;;5071318;28;20853;-70
2023/12/01 06:43:33;;;;;;;28.37;14.23;;;2.70;99.90;;;;;;5071277;28;20208;-70
2023/12/01 06:45:59;;;;;;;20.97;11.90;;;2.60;99.90;;;;;;5071264;28;20543;-70
2023/12/01 06:48:25;;;;;;;21.90;13.40;;;2.70;99.90;;;;;;5071259;28;20166;-70
2023/12/01 06:50:51;;;;;;;22.80;12.73;;;2.70;99.90;;;;;;5069803;28;20458;-69
2023/12/01 06:53:16;;;;;;;24.77;13.90;;;2.70;99.90;;;;;;5071162;28;20532;-70
2023/12/01 06:55:42;;;;;;;20.80;12.67;;;2.60;99.90;;;;;;5074668;28;20668;-70
2023/12/01 06:58:09;;;;;;;24.77;13.97;;;2.60;99.90;;;;;;5074918;28;20166;-70
2023/12/01 07:00:36;;;;;;;21.73;10.63;;;2.60;99.90;;;;;;5074801;28;20189;-69
2023/12/01 07:03:04;;;;;;;26.00;12.93;;;2.60;99.90;;;;;;5075100;28;20408;-70
2023/12/01 07:05:31;;;;;;;25.70;13.97;;;2.60;99.90;;;;;;5073623;28;20783;-70
2023/12/01 07:07:58;;;;;;;18.40;9.57;;;2.60;99.90;;;;;;5074826;28;20436;-69
2023/12/01 07:10:24;;;;;;;19.73;13.10;;;2.70;99.90;;;;;;5074880;28;20424;-70
2023/12/01 07:12:52;;;;;;;28.33;14.13;;;2.70;99.90;;;;;;5074690;28;20956;-70
2023/12/01 07:15:21;;;;;;;25.87;12.00;;;2.70;99.90;;;;;;5073420;28;20448;-70
2023/12/01 07:17:51;;;;;;;25.20;14.87;;;2.80;99.90;;;;;;5074500;28;20392;-69
2023/12/01 07:20:18;;;;;;;19.93;13.20;;;2.80;99.90;;;;;;5074503;28;20983;-69
2023/12/01 07:22:46;;;;;;;22.07;12.37;;;2.80;99.90;;;;;;5074514;28;20389;-70
2023/12/01 07:25:21;;;;;;;29.20;13.20;;;2.80;99.90;;;;;;5074608;28;20911;-70
2023/12/01 07:27:53;;;;;;;21.47;13.33;;;2.80;99.90;;;;;;5074536;28;20469;-70
2023/12/01 07:30:19;;;;;;;30.50;14.37;;;2.80;99.90;;;;;;5074484;28;20926;-70
2023/12/01 07:32:46;;;;;;;20.93;11.40;;;2.70;99.90;;;;;;5073049;28;20397;-70
2023/12/01 07:35:12;;;;;;;22.27;10.93;;;2.80;99.90;;;;;;5072947;28;20431;-71
2023/12/01 07:37:42;;;;;;;18.10;10.93;;;2.80;99.90;;;;;;5074226;28;20462;-70
2023/12/01 07:40:09;;;;;;;21.07;11.60;;;2.70;99.90;;;;;;5074167;28;20432;-69
2023/12/01 07:42:34;;;;;;;18.27;10.23;;;2.70;99.90;;;;;;5074166;28;20412;-70
2023/12/01 07:45:00;;;;;;;18.93;10.00;;;2.70;99.90;;;;;;5074174;28;20907;-70
2023/12/01 07:47:26;;;;;;;12.00;8.40;;;2.70;99.90;;;;;;5074091;28;20197;-70
2023/12/01 07:49:51;;;;;;;13.93;8.10;;;2.60;99.90;;;;;;5074005;28;20193;-70
2023/12/01 07:52:17;;;;;;;14.83;7.70;;;2.60;99.90;;;;;;5073919;28;20273;-70
2023/12/01 07:54:42;;;;;;;12.93;8.10;;;2.60;99.90;;;;;;5073921;28;20186;-70
2023/12/01 07:57:09;;;;;;;9.90;6.90;;;2.50;99.90;;;;;;5073831;28;20560;-70
2023/12/01 07:59:36;;;;;;;12.20;6.73;;;2.50;99.90;;;;;;5073855;28;20193;-70
2023/12/01 08:02:01;;;;;;;12.70;8.00;;;2.40;99.90;;;;;;5073883;28;21070;-70
2023/12/01 08:04:27;;;;;;;10.03;7.13;;;2.40;99.90;;;;;;5073278;28;20404;-70
2023/12/01 08:06:53;;;;;;;9.50;6.67;;;2.40;99.90;;;;;;5073694;28;20257;-71
2023/12/01 08:09:19;;;;;;;13.33;7.63;;;2.40;99.90;;;;;;5072112;28;20174;-70
2023/12/01 08:11:44;;;;;;;10.57;5.80;;;2.40;99.90;;;;;;5073569;28;20838;-70
2023/12/01 08:14:10;;;;;;;13.10;7.17;;;2.40;99.90;;;;;;5073666;28;20177;-70
2023/12/01 08:16:36;;;;;;;9.67;6.50;;;2.40;99.90;;;;;;5073363;28;20197;-71
2023/12/01 08:19:01;;;;;;;11.40;6.87;;;2.40;99.90;;;;;;5073592;28;20232;-71
2023/12/01 08:21:27;;;;;;;12.17;7.30;;;2.40;99.90;;;;;;5073383;28;20621;-71
2023/12/01 08:23:52;;;;;;;9.67;6.20;;;2.40;99.90;;;;;;5071797;28;20257;-71
2023/12/01 08:26:22;;;;;;;10.77;6.43;;;2.40;99.90;;;;;;5073517;28;20177;-70
2023/12/01 08:28:48;;;;;;;12.00;6.10;;;2.50;99.90;;;;;;5073338;28;20310;-69
2023/12/01 08:31:13;;;;;;;8.13;5.87;;;2.50;99.90;;;;;;5071984;28;20432;-70
2023/12/01 08:33:39;;;;;;;11.37;5.97;;;2.50;99.90;;;;;;5073183;28;20279;-70
2023/12/01 08:36:05;;;;;;;11.47;6.27;;;2.60;99.90;;;;;;5071825;28;20241;-70
2023/12/01 08:38:30;;;;;;;12.00;7.87;;;2.60;99.90;;;;;;5073024;28;20197;-71
2023/12/01 08:40:56;;;;;;;8.73;5.40;;;2.60;99.90;;;;;;5072995;28;20431;-70
2023/12/01 08:43:21;;;;;;;8.63;6.40;;;2.60;99.90;;;;;;5073026;28;20166;-71
2023/12/01 08:45:47;;;;;;;12.00;6.67;;;2.60;99.90;;;;;;5072869;28;20182;-71
2023/12/01 08:48:12;;;;;;;9.27;6.27;;;2.70;99.90;;;;;;5072642;28;20193;-70
2023/12/01 08:50:38;;;;;;;11.30;6.50;;;2.80;99.90;;;;;;5072679;28;20194;-71
2023/12/01 08:53:03;;;;;;;11.83;6.20;;;2.80;99.90;;;;;;5072762;28;20181;-71
2023/12/01 08:55:29;;;;;;;9.23;6.33;;;2.80;99.90;;;;;;5072615;28;20601;-71
2023/12/01 08:57:54;;;;;;;8.97;4.93;;;2.80;99.90;;;;;;5072642;28;20166;-71
2023/12/01 09:00:20;;;;;;;6.83;3.97;;;2.80;99.90;;;;;;5072730;28;20261;-71
2023/12/01 09:02:49;;;;;;;9.50;4.53;;;2.70;99.90;;;;;;5072603;28;20163;-71
2023/12/01 09:05:17;;;;;;;10.43;4.43;;;2.80;99.90;;;;;;5072689;28;20165;-71
2023/12/01 09:07:43;;;;;;;10.53;5.30;;;2.80;99.90;;;;;;5071153;28;20431;-70
2023/12/01 09:10:09;;;;;;;11.90;6.37;;;2.80;99.90;;;;;;5072444;28;20511;-71
2023/12/01 09:12:34;;;;;;;5.10;3.83;;;2.90;99.90;;;;;;5072359;28;20491;-70
2023/12/01 09:15:00;;;;;;;8.17;5.43;;;2.80;99.90;;;;;;5072161;28;20197;-71
2023/12/01 09:17:26;;;;;;;8.33;4.67;;;2.80;99.90;;;;;;5071408;28;20181;-70
2023/12/01 09:19:51;;;;;;;7.20;5.33;;;2.80;99.90;;;;;;5072282;28;20194;-70
2023/12/01 09:22:17;;;;;;;7.10;5.00;;;2.80;99.90;;;;;;5072184;28;20170;-69
2023/12/01 09:24:42;;;;;;;7.40;4.70;;;2.80;99.90;;;;;;5072297;28;20166;-71
2023/12/01 09:27:08;;;;;;;8.47;5.23;;;2.70;99.90;;;;;;5072113;28;20175;-70
2023/12/01 09:29:33;;;;;;;14.53;5.93;;;2.70;99.90;;;;;;5072037;28;20194;-70
2023/12/01 09:31:59;;;;;;;8.83;5.10;;;2.80;99.90;;;;;;5071985;28;20261;-71
2023/12/01 09:34:24;;;;;;;6.90;4.70;;;2.70;99.90;;;;;;5070866;28;20737;-71
2023/12/01 09:36:50;;;;;;;9.23;5.20;;;2.80;99.90;;;;;;5071839;28;20301;-70
2023/12/01 09:39:16;;;;;;;7.80;5.60;;;2.90;99.90;;;;;;5071919;28;20196;-71
2023/12/01 09:41:42;;;;;;;6.20;4.87;;;2.90;99.90;;;;;;5071900;28;20396;-70
2023/12/01 09:44:08;;;;;;;6.67;5.07;;;3.00;99.90;;;;;;5071970;28;20166;-71
2023/12/01 09:46:35;;;;;;;6.60;4.30;;;3.00;99.90;;;;;;5071697;28;20448;-71
2023/12/01 09:49:05;;;;;;;9.70;5.43;;;2.90;99.90;;;;;;5071890;28;20188;-71
2023/12/01 09:51:36;;;;;;;6.30;4.33;;;2.90;99.90;;;;;;5071769;28;20428;-71
2023/12/01 09:54:05;;;;;;;7.00;4.53;;;2.90;99.90;;;;;;5071781;28;20458;-69
2023/12/01 09:56:31;;;;;;;8.47;5.70;;;2.90;99.90;;;;;;5071289;28;20806;-71
2023/12/01 09:58:58;;;;;;;9.07;5.47;;;2.90;99.90;;;;;;5071762;28;20401;-71
2023/12/01 10:01:24;;;;;;;10.23;5.90;;;2.80;99.90;;;;;;5071591;28;20942;-71
2023/12/01 10:03:50;;;;;;;10.60;6.40;;;2.90;99.90;;;;;;5071762;28;20411;-70
2023/12/01 10:06:17;;;;;;;8.57;6.00;;;2.90;99.90;;;;;;5071754;28;20400;-71
2023/12/01 10:08:43;;;;;;;10.30;6.23;;;2.80;99.90;;;;;;5071632;28;20404;-70
2023/12/01 10:11:20;;;;;;;6.40;4.40;;;2.70;99.90;;;;;;5071815;28;20427;-71
2023/12/01 10:13:46;;;;;;;11.83;6.60;;;2.80;99.90;;;;;;5071631;28;20244;-70
2023/12/01 10:16:11;;;;;;;10.43;6.10;;;2.90;99.90;;;;;;5071422;28;20815;-71
2023/12/01 10:18:37;;;;;;;11.83;6.07;;;2.90;99.90;;;;;;5071469;28;20170;-71
2023/12/01 10:21:03;;;;;;;8.27;5.60;;;2.90;99.90;;;;;;5071466;28;20182;-70
2023/12/01 10:23:30;;;;;;;11.50;5.27;;;3.00;99.90;;;;;;5071598;28;20215;-71
2023/12/01 10:25:56;;;;;;;9.80;5.10;;;3.00;99.90;;;;;;5071495;28;20411;-71
2023/12/01 10:28:26;;;;;;;6.73;4.43;;;3.00;99.90;;;;;;5073032;28;20461;-70
2023/12/01 10:30:56;;;;;;;10.97;5.33;;;3.00;99.90;;;;;;5075420;28;20901;-71
2023/12/01 10:33:22;;;;;;;7.17;5.47;;;3.00;99.90;;;;;;5075546;28;20969;-70
2023/12/01 10:36:05;;;;;;;8.47;5.63;;;2.90;99.90;;;;;;5075441;28;20444;-71
2023/12/01 10:38:36;;;;;;;11.80;5.23;;;2.90;99.90;;;;;;5075432;28;21067;-71
2023/12/01 10:41:03;;;;;;;7.67;5.40;;;2.90;99.90;;;;;;5074049;28;20428;-70
2023/12/01 10:43:29;;;;;;;9.00;5.07;;;2.80;99.90;;;;;;5075255;28;20745;-70
2023/12/01 10:46:02;;;;;;;6.80;4.70;;;2.80;99.90;;;;;;5075293;28;20904;-70
2023/12/01 10:48:30;;;;;;;9.27;5.13;;;2.80;99.90;;;;;;5075118;28;20495;-71
2023/12/01 10:50:56;;;;;;;10.57;5.37;;;2.90;99.90;;;;;;5075045;28;20428;-71
2023/12/01 10:53:24;;;;;;;8.33;5.80;;;2.90;99.90;;;;;;5075106;28;20895;-71
2023/12/01 10:55:50;;;;;;;8.00;5.00;;;2.80;99.90;;;;;;5074973;28;20348;-71
2023/12/01 10:58:23;;;;;;;6.20;4.60;;;2.80;99.90;;;;;;5074814;28;20396;-71
2023/12/01 11:00:53;;;;;;;10.80;5.57;;;2.90;99.90;;;;;;5074898;28;20430;-71
2023/12/01 11:03:23;;;;;;;10.50;6.27;;;2.90;99.90;;;;;;5073531;28;20419;-69
2023/12/01 11:05:52;;;;;;;11.60;5.57;;;2.90;99.90;;;;;;5074993;28;20518;-71
2023/12/01 11:08:42;;;;;;;10.87;5.97;;;2.90;99.90;;;;;;5074765;28;20408;-71
2023/12/01 11:11:16;;;;;;;11.83;6.00;;;3.00;99.90;;;;;;5074728;28;20459;-71
2023/12/01 11:14:14;;;;;;;7.57;5.47;;;3.00;99.90;;;;;;5074705;28;20400;-71
2023/12/01 11:16:40;;;;;;;8.50;5.47;;;3.00;99.90;;;;;;5074493;28;20447;-71
2023/12/01 11:19:08;;;;;;;10.80;5.53;;;3.10;99.90;;;;;;5074631;28;20416;-70
2023/12/01 11:21:33;;;;;;;12.53;6.83;;;3.10;99.90;;;;;;5074157;28;20548;-71
2023/12/01 11:24:31;;;;;;;7.37;5.20;;;3.20;99.90;;;;;;5074677;28;20397;-70
2023/12/01 11:27:05;;;;;;;6.37;4.23;;;3.20;99.90;;;;;;5066378;28;20314;-70
2023/12/01 11:29:35;;;;;;;8.97;5.30;;;3.20;99.90;;;;;;5074215;28;20412;-71
2023/12/01 11:32:00;;;;;;;8.03;4.63;;;3.20;99.90;;;;;;5074433;28;20435;-71
2023/12/01 11:34:26;;;;;;;8.00;4.00;;;3.20;99.90;;;;;;5074425;28;20815;-71
2023/12/01 11:36:56;;;;;;;11.27;4.97;;;3.20;99.90;;;;;;5072790;28;20194;-71
2023/12/01 11:39:29;;;;;;;8.90;4.83;;;3.30;99.90;;;;;;5073366;28;20162;-71
2023/12/01 11:42:12;;;;;;;8.33;5.43;;;3.30;99.90;;;;;;5074160;28;20395;-71
2023/12/01 11:44:40;;;;;;;8.87;4.97;;;3.30;99.90;;;;;;5074261;28;20407;-70
2023/12/01 11:47:08;;;;;;;7.73;5.00;;;3.40;99.90;;;;;;5072623;28;20761;-70
2023/12/01 11:49:39;;;;;;;9.63;3.87;;;3.40;99.90;;;;;;5072746;28;20436;-70
2023/12/01 11:52:07;;;;;;;5.90;3.83;;;3.40;99.90;;;;;;5074039;28;20752;-70
2023/12/01 11:54:35;;;;;;;10.43;3.40;;;3.30;99.90;;;;;;5073924;28;20436;-70
2023/12/01 11:57:02;;;;;;;6.40;3.63;;;3.40;99.90;;;;;;5073699;28;20456;-70
2023/12/01 11:59:28;;;;;;;6.70;4.37;;;3.50;99.90;;;;;;5073811;28;20459;-71
2023/12/01 12:01:55;;;;;;;6.47;3.80;;;3.50;99.90;;;;;;5073824;28;20491;-71
2023/12/01 12:04:21;;;;;;;6.00;3.83;;;3.60;99.90;;;;;;5073809;28;20162;-71
2023/12/01 12:06:47;;;;;;;5.43;4.50;;;3.70;99.90;;;;;;5072303;28;20455;-70
2023/12/01 12:09:17;;;;;;;7.43;4.80;;;3.70;99.90;;;;;;5073724;28;20174;-71
2023/12/01 12:11:45;;;;;;;6.83;4.20;;;3.80;99.90;;;;;;5073445;28;20163;-70
2023/12/01 12:14:10;;;;;;;5.80;3.70;;;3.80;99.90;;;;;;5073642;28;20915;-70
2023/12/01 12:16:36;;;;;;;21.97;4.20;;;3.80;99.90;;;;;;5073340;28;20509;-71
2023/12/01 12:19:02;;;;;;;7.03;4.07;;;3.80;99.90;;;;;;5073733;28;20174;-71
2023/12/01 12:21:28;;;;;;;6.40;4.67;;;3.70;99.90;;;;;;5073274;28;20178;-70
2023/12/01 12:23:55;;;;;;;6.07;4.33;;;3.70;99.90;;;;;;5072268;28;20409;-71
2023/12/01 12:26:26;;;;;;;4.63;3.63;;;3.70;99.90;;;;;;5072104;28;20404;-71
2023/12/01 12:29:03;;;;;;;7.60;5.30;;;3.60;99.90;;;;;;5073208;28;20466;-70
2023/12/01 12:31:40;;;;;;;5.00;3.60;;;3.60;99.90;;;;;;5073194;28;20431;-70
2023/12/01 12:34:07;;;;;;;4.00;3.53;;;3.50;99.90;;;;;;5073292;28;20408;-71
2023/12/01 12:36:34;;;;;;;7.40;4.07;;;3.40;99.90;;;;;;5071766;28;20456;-70
2023/12/01 12:39:03;;;;;;;5.30;3.60;;;3.30;99.90;;;;;;5073743;28;20497;-70
2023/12/01 12:41:29;;;;;;;7.10;4.50;;;3.30;99.90;;;;;;5073056;28;20504;-71
2023/12/01 12:43:59;;;;;;;7.90;3.90;;;3.30;99.90;;;;;;5073154;28;20470;-71